Time;durP1;ratioP1;P1;durP2;ratioP2;P2;SDS_P1;SDS_P2;PMS_P1;PMS_P2;Temp;Humidity;BMP_temperature;BMP_pressure;BME280_temperature;BME280_humidity;BME280_pressure;Samples;Min_cycle;Max_cycle;Signal;HPM_P1;HPM_P2
2023/10/01 00:00:30;;;;;;;0.50;0.50;;;19.10;52.00;;;;;;5174706;27;20010;-66
2023/10/01 00:02:59;;;;;;;0.40;0.40;;;19.20;52.10;;;;;;5173636;27;20030;-67
2023/10/01 00:05:25;;;;;;;0.40;0.40;;;19.20;52.10;;;;;;5174724;27;20474;-68
2023/10/01 00:07:52;;;;;;;0.68;0.68;;;19.20;52.10;;;;;;5168370;27;20026;-67
2023/10/01 00:10:19;;;;;;;0.47;0.47;;;19.20;52.20;;;;;;5164367;27;20523;-67
2023/10/01 00:12:47;;;;;;;0.55;0.55;;;19.20;52.10;;;;;;5173632;27;20109;-67
2023/10/01 00:15:16;;;;;;;0.40;0.40;;;19.20;52.10;;;;;;5171550;27;20019;-67
2023/10/01 00:17:46;;;;;;;0.50;0.50;;;19.20;52.10;;;;;;5174474;27;20463;-67
2023/10/01 00:20:18;;;;;;;0.60;0.60;;;19.20;52.10;;;;;;5171495;27;20025;-67
2023/10/01 00:22:45;;;;;;;0.50;0.50;;;19.20;52.10;;;;;;5171946;27;20022;-67
2023/10/01 00:25:10;;;;;;;0.50;0.50;;;19.10;52.20;;;;;;5156736;27;20034;-67
2023/10/01 00:27:39;;;;;;;0.47;0.47;;;19.10;52.30;;;;;;5165733;27;20041;-67
2023/10/01 00:30:09;;;;;;;0.47;0.47;;;19.10;52.30;;;;;;5163932;27;20058;-67
2023/10/01 00:32:35;;;;;;;0.40;0.40;;;19.10;52.30;;;;;;5172072;27;20022;-67
2023/10/01 00:35:05;;;;;;;0.90;0.90;;;19.10;52.20;;;;;;5174646;27;20458;-67
2023/10/01 00:37:32;;;;;;;0.50;0.50;;;19.10;52.30;;;;;;5164524;27;20471;-67
2023/10/01 00:39:59;;;;;;;0.70;0.70;;;19.20;52.20;;;;;;5174555;27;20106;-67
2023/10/01 00:42:26;;;;;;;1.75;1.20;;;19.10;52.20;;;;;;5174697;27;20026;-66
2023/10/01 00:44:53;;;;;;;0.40;0.40;;;19.20;52.10;;;;;;5174435;27;20050;-67
2023/10/01 00:47:20;;;;;;;0.50;0.50;;;19.20;52.10;;;;;;5174015;27;20462;-67
2023/10/01 00:49:47;;;;;;;0.50;0.50;;;19.10;52.10;;;;;;5173822;27;20018;-67
2023/10/01 00:52:20;;;;;;;0.80;0.80;;;19.10;52.10;;;;;;5174409;27;20121;-67
2023/10/01 00:54:50;;;;;;;1.08;0.55;;;19.20;52.20;;;;;;5174433;27;20022;-67
2023/10/01 00:57:16;;;;;;;0.40;0.40;;;19.10;52.10;;;;;;5171525;27;20030;-67
2023/10/01 00:59:43;;;;;;;0.70;0.70;;;19.20;52.10;;;;;;5174504;27;20050;-67
2023/10/01 01:02:10;;;;;;;0.60;0.60;;;19.20;52.10;;;;;;5174118;27;20113;-68
2023/10/01 01:04:46;;;;;;;0.40;0.40;;;19.20;52.00;;;;;;5172900;27;20343;-68
2023/10/01 01:07:24;;;;;;;0.40;0.40;;;19.20;52.00;;;;;;5175077;27;20486;-67
2023/10/01 01:09:50;;;;;;;0.80;0.80;;;19.20;52.10;;;;;;5172884;27;20018;-68
2023/10/01 01:12:15;;;;;;;0.40;0.40;;;19.30;52.10;;;;;;5174216;27;20403;-67
2023/10/01 01:14:44;;;;;;;0.40;0.40;;;19.20;52.00;;;;;;5172651;27;20010;-67
2023/10/01 01:17:14;;;;;;;0.40;0.40;;;19.20;51.90;;;;;;5174378;27;20053;-67
2023/10/01 01:19:42;;;;;;;0.50;0.50;;;19.30;51.90;;;;;;5174039;27;20022;-67
2023/10/01 01:22:15;;;;;;;1.20;1.10;;;19.30;51.80;;;;;;5172575;27;20030;-67
2023/10/01 01:24:40;;;;;;;0.52;0.52;;;19.30;51.80;;;;;;5172799;27;20018;-67
2023/10/01 01:27:06;;;;;;;0.52;0.52;;;19.40;51.80;;;;;;5173892;27;20045;-67
2023/10/01 01:29:40;;;;;;;0.47;0.47;;;19.40;51.80;;;;;;5173801;27;20026;-67
2023/10/01 01:32:13;;;;;;;0.50;0.50;;;19.30;51.80;;;;;;5173909;27;20026;-67
2023/10/01 01:34:48;;;;;;;0.40;0.40;;;19.30;51.80;;;;;;5173452;27;20546;-67
2023/10/01 01:37:19;;;;;;;0.40;0.40;;;19.40;51.80;;;;;;5165866;27;20575;-67
2023/10/01 01:39:53;;;;;;;;;;;19.40;51.80;;;;;;5153110;27;20019;-67
2023/10/01 01:42:22;;;;;;;0.40;0.40;;;19.40;51.80;;;;;;5153205;27;19918;-67
2023/10/01 01:44:48;;;;;;;0.60;0.60;;;19.30;51.80;;;;;;5152935;27;20023;-67
2023/10/01 01:47:15;;;;;;;0.40;0.40;;;19.30;51.80;;;;;;5152454;27;20091;-67
2023/10/01 01:49:42;;;;;;;0.40;0.40;;;19.40;51.80;;;;;;5152475;27;20066;-67
2023/10/01 01:52:08;;;;;;;0.77;0.77;;;19.40;51.80;;;;;;5168461;27;20494;-67
2023/10/01 01:54:36;;;;;;;1.08;0.98;;;19.30;51.90;;;;;;5172055;27;20535;-67
2023/10/01 01:57:02;;;;;;;0.60;0.60;;;19.30;52.00;;;;;;5172348;27;20431;-67
2023/10/01 01:59:29;;;;;;;0.40;0.40;;;19.30;52.20;;;;;;5173376;27;20053;-67
2023/10/01 02:01:56;;;;;;;0.30;0.30;;;19.30;52.20;;;;;;5173721;27;20030;-67
2023/10/01 02:04:25;;;;;;;0.73;0.70;;;19.30;52.20;;;;;;5173356;27;20052;-66
2023/10/01 02:06:51;;;;;;;0.40;0.40;;;19.30;52.30;;;;;;5173502;27;20030;-66
2023/10/01 02:09:24;;;;;;;0.60;0.60;;;19.30;52.30;;;;;;5172009;27;20459;-66
2023/10/01 02:11:52;;;;;;;0.70;0.70;;;19.30;52.30;;;;;;5173562;27;20050;-67
2023/10/01 02:14:30;;;;;;;0.40;0.40;;;19.30;52.30;;;;;;5172020;27;20467;-66
2023/10/01 02:17:02;;;;;;;0.50;0.50;;;19.40;52.30;;;;;;5173479;27;20501;-66
2023/10/01 02:19:29;;;;;;;0.50;0.50;;;19.30;52.30;;;;;;5174098;27;20025;-67
2023/10/01 02:22:05;;;;;;;0.35;0.35;;;19.30;52.30;;;;;;5173957;27;20396;-68
2023/10/01 02:27:20;;;;;;;0.40;0.40;;;19.40;52.30;;;;;;5173785;27;20506;-67
2023/10/01 02:30:11;;;;;;;0.52;0.52;;;19.30;52.30;;;;;;5173780;27;20081;-67
2023/10/01 02:32:32;;;;;;;0.40;0.40;;;19.40;52.30;;;;;;5174250;27;20030;-67
2023/10/01 02:34:58;;;;;;;0.50;0.50;;;19.40;52.30;;;;;;5173766;27;20045;-67
2023/10/01 02:37:35;;;;;;;0.35;0.35;;;19.40;52.30;;;;;;5164358;27;20030;-67
2023/10/01 02:40:13;;;;;;;0.40;0.40;;;19.40;52.30;;;;;;5152739;27;20094;-67
2023/10/01 02:42:38;;;;;;;0.50;0.50;;;19.40;52.30;;;;;;5151406;27;20031;-67
2023/10/01 02:45:30;;;;;;;1.35;1.10;;;19.40;52.40;;;;;;5152819;27;20543;-67
2023/10/01 02:48:13;;;;;;;0.40;0.40;;;19.40;52.40;;;;;;5155509;27;20042;-67
2023/10/01 02:50:36;;;;;;;0.50;0.50;;;19.40;52.50;;;;;;5158682;27;20031;-67
2023/10/01 02:53:03;;;;;;;0.40;0.40;;;19.30;52.50;;;;;;5177851;27;20074;-67
2023/10/01 02:55:30;;;;;;;1.13;0.65;;;19.40;52.50;;;;;;5176943;27;20045;-67
2023/10/01 02:58:17;;;;;;;0.60;0.60;;;19.40;52.50;;;;;;5177283;27;20034;-67
2023/10/01 03:00:42;;;;;;;0.40;0.40;;;19.40;52.50;;;;;;5176896;27;20443;-67
2023/10/01 03:03:14;;;;;;;0.40;0.40;;;19.40;52.50;;;;;;5177613;27;20465;-67
2023/10/01 03:05:42;;;;;;;0.50;0.50;;;19.30;52.50;;;;;;5176986;27;20082;-67
2023/10/01 03:08:12;;;;;;;0.77;0.65;;;19.40;52.50;;;;;;5177052;27;20041;-66
2023/10/01 03:10:38;;;;;;;0.40;0.40;;;19.30;52.60;;;;;;5176998;27;20021;-66
2023/10/01 03:13:17;;;;;;;0.52;0.52;;;19.40;52.60;;;;;;5176710;27;20101;-66
2023/10/01 03:15:44;;;;;;;0.40;0.40;;;19.30;52.60;;;;;;5176292;27;20022;-68
2023/10/01 03:25:57;;;;;;;0.50;0.50;;;19.30;52.90;;;;;;5176138;27;20146;-66
2023/10/01 03:28:26;;;;;;;0.43;0.43;;;19.30;52.90;;;;;;5176461;27;20098;-67
2023/10/01 03:31:07;;;;;;;0.50;0.50;;;19.30;52.90;;;;;;5176471;27;20045;-67
2023/10/01 03:33:40;;;;;;;1.27;0.93;;;19.30;53.10;;;;;;5176109;27;20382;-67
2023/10/01 03:36:10;;;;;;;0.38;0.38;;;19.20;53.10;;;;;;5176445;27;20520;-67
2023/10/01 03:38:42;;;;;;;0.60;0.60;;;19.30;53.10;;;;;;5156259;27;20109;-67
2023/10/01 03:41:20;;;;;;;0.40;0.40;;;19.30;53.10;;;;;;5155297;27;20159;-67
2023/10/01 03:43:47;;;;;;;0.40;0.40;;;19.30;53.10;;;;;;5155173;27;20109;-67
2023/10/01 03:46:14;;;;;;;0.40;0.40;;;19.30;53.10;;;;;;5154587;27;20033;-67
2023/10/01 03:54:14;;;;;;;0.40;0.40;;;19.30;53.20;;;;;;5175965;27;20032;-67
2023/10/01 03:56:45;;;;;;;0.50;0.50;;;19.30;53.20;;;;;;5175887;27;20026;-67
2023/10/01 03:59:16;;;;;;;0.40;0.40;;;19.40;53.20;;;;;;5176195;27;20470;-67
2023/10/01 04:01:58;;;;;;;0.57;0.57;;;19.40;53.10;;;;;;5175787;27;20166;-67
2023/10/01 04:04:27;;;;;;;0.40;0.40;;;19.40;53.10;;;;;;5175646;27;20034;-68
2023/10/01 04:06:55;;;;;;;0.55;0.55;;;19.40;53.10;;;;;;5175645;27;20034;-68
2023/10/01 04:09:26;;;;;;;0.35;0.35;;;19.40;53.10;;;;;;5176020;27;20018;-67
2023/10/01 04:12:18;;;;;;;1.83;0.98;;;19.40;53.20;;;;;;5175972;27;20736;-68
2023/10/01 04:14:48;;;;;;;0.40;0.40;;;19.40;53.20;;;;;;5175511;27;20058;-67
2023/10/01 04:17:17;;;;;;;0.47;0.47;;;19.40;53.30;;;;;;5175675;27;20069;-67
2023/10/01 04:19:49;;;;;;;1.27;1.17;;;19.40;53.30;;;;;;5175279;27;20022;-67
2023/10/01 04:22:15;;;;;;;0.63;0.63;;;19.40;53.30;;;;;;5175899;27;20030;-67
2023/10/01 04:24:42;;;;;;;0.60;0.60;;;19.40;53.40;;;;;;5175477;27;20027;-68
2023/10/01 04:27:23;;;;;;;0.40;0.40;;;19.40;53.40;;;;;;5175642;27;20031;-67
2023/10/01 04:29:58;;;;;;;0.60;0.60;;;19.40;53.50;;;;;;5175251;27;20453;-67
2023/10/01 04:32:27;;;;;;;0.30;0.30;;;19.40;53.50;;;;;;5175780;27;20074;-67
2023/10/01 04:34:58;;;;;;;0.40;0.40;;;19.40;53.50;;;;;;5174892;27;20054;-67
2023/10/01 04:37:36;;;;;;;0.63;0.63;;;19.40;53.50;;;;;;5165667;27;20049;-67
2023/10/01 04:40:31;;;;;;;0.40;0.40;;;19.40;53.50;;;;;;5153740;27;20552;-67
2023/10/01 04:42:52;;;;;;;0.85;0.80;;;19.40;53.50;;;;;;5153825;27;20102;-67
2023/10/01 04:45:23;;;;;;;0.60;0.60;;;19.40;53.50;;;;;;5153774;27;20105;-67
2023/10/01 04:47:55;;;;;;;0.45;0.45;;;19.40;53.50;;;;;;5153410;27;20509;-67
2023/10/01 04:50:24;;;;;;;0.50;0.50;;;19.40;53.50;;;;;;5154092;27;20510;-68
2023/10/01 04:52:49;;;;;;;0.40;0.40;;;19.30;53.50;;;;;;5174652;27;20074;-67
2023/10/01 04:55:15;;;;;;;0.45;0.45;;;19.40;53.60;;;;;;5174403;27;20030;-67
2023/10/01 04:57:41;;;;;;;0.40;0.40;;;19.40;53.60;;;;;;5174646;27;20377;-67
2023/10/01 05:00:10;;;;;;;0.40;0.40;;;19.40;53.60;;;;;;5174245;27;20026;-67
2023/10/01 05:02:37;;;;;;;0.75;0.75;;;19.40;53.60;;;;;;5174563;27;20018;-68
2023/10/01 05:05:11;;;;;;;0.63;0.63;;;19.40;53.60;;;;;;5174322;27;20110;-68
2023/10/01 05:07:37;;;;;;;0.40;0.40;;;19.40;53.60;;;;;;5174430;27;20059;-69
2023/10/01 05:10:07;;;;;;;0.40;0.40;;;19.40;53.60;;;;;;5173903;27;20313;-68
2023/10/01 05:12:34;;;;;;;0.40;0.40;;;19.40;53.60;;;;;;5174745;27;20018;-68
2023/10/01 05:15:01;;;;;;;4.20;0.65;;;19.40;53.70;;;;;;5174184;27;20047;-67
2023/10/01 05:17:30;;;;;;;0.50;0.50;;;19.40;53.60;;;;;;5174088;27;20424;-67
2023/10/01 05:19:58;;;;;;;0.43;0.43;;;19.40;53.60;;;;;;5173997;27;20022;-68
2023/10/01 05:22:24;;;;;;;0.40;0.40;;;19.40;53.60;;;;;;5174166;27;20022;-68
2023/10/01 05:24:50;;;;;;;0.60;0.60;;;19.50;53.60;;;;;;5174227;27;20117;-68
2023/10/01 05:27:18;;;;;;;0.50;0.50;;;19.50;53.50;;;;;;5174042;27;20518;-67
2023/10/01 05:29:45;;;;;;;0.50;0.50;;;19.50;53.50;;;;;;5173938;27;20026;-67
2023/10/01 05:32:11;;;;;;;0.40;0.40;;;19.50;53.50;;;;;;5173948;27;20022;-67
2023/10/01 05:34:46;;;;;;;0.75;0.75;;;19.60;53.40;;;;;;5174156;27;20048;-67
2023/10/01 05:37:20;;;;;;;0.60;0.60;;;19.60;53.40;;;;;;5164942;27;20123;-67
2023/10/01 05:39:55;;;;;;;0.60;0.60;;;19.70;53.30;;;;;;5152837;27;20056;-68
2023/10/01 05:42:31;;;;;;;0.50;0.50;;;19.70;53.20;;;;;;5153171;27;20091;-67
2023/10/01 05:44:59;;;;;;;0.63;0.63;;;19.80;53.20;;;;;;5152681;27;20417;-67
2023/10/01 05:50:12;;;;;;;0.43;0.43;;;19.80;53.10;;;;;;5175188;27;20735;-68
2023/10/01 05:52:40;;;;;;;0.40;0.40;;;19.90;53.00;;;;;;5173873;27;20025;-69
2023/10/01 05:55:12;;;;;;;0.50;0.50;;;19.90;52.90;;;;;;5173621;27;20046;-69
2023/10/01 05:57:38;;;;;;;0.93;0.85;;;19.90;52.80;;;;;;5174217;27;20030;-68
2023/10/01 06:00:16;;;;;;;0.47;0.47;;;19.90;52.80;;;;;;5173482;27;20030;-68
2023/10/01 06:03:00;;;;;;;0.60;0.60;;;19.90;52.70;;;;;;5173712;27;20022;-68
2023/10/01 06:05:50;;;;;;;0.50;0.50;;;20.00;52.60;;;;;;5173357;27;20032;-68
2023/10/01 06:08:14;;;;;;;0.50;0.50;;;20.00;52.70;;;;;;5173143;27;20470;-69
2023/10/01 06:10:59;;;;;;;0.50;0.50;;;20.00;52.70;;;;;;5173778;27;20023;-69
2023/10/01 06:13:28;;;;;;;0.50;0.50;;;20.00;52.60;;;;;;5173826;27;20571;-69
2023/10/01 06:16:11;;;;;;;0.55;0.55;;;20.00;52.50;;;;;;5173475;27;20022;-69
2023/10/01 06:18:51;;;;;;;0.70;0.70;;;20.10;52.40;;;;;;5173672;27;20049;-68
2023/10/01 06:21:22;;;;;;;0.50;0.50;;;20.00;52.40;;;;;;5174477;27;20026;-69
2023/10/01 06:23:51;;;;;;;0.70;0.70;;;20.10;52.30;;;;;;5177147;27;20491;-69
2023/10/01 06:26:29;;;;;;;0.80;0.80;;;20.10;52.30;;;;;;5177424;27;20420;-69
2023/10/01 06:28:56;;;;;;;0.80;0.80;;;20.10;52.30;;;;;;5177357;27;20053;-69
2023/10/01 06:31:23;;;;;;;0.35;0.35;;;20.20;52.20;;;;;;5177458;27;20018;-68
2023/10/01 06:33:53;;;;;;;0.65;0.65;;;20.20;52.10;;;;;;5177303;27;20531;-69
2023/10/01 06:36:21;;;;;;;0.50;0.50;;;20.20;52.20;;;;;;5177531;27;20018;-69
2023/10/01 06:38:47;;;;;;;0.68;0.68;;;20.20;52.10;;;;;;5156367;27;20267;-69
2023/10/01 06:41:19;;;;;;;0.52;0.52;;;20.30;52.20;;;;;;5156147;27;20023;-69
2023/10/01 06:43:48;;;;;;;0.40;0.40;;;20.30;52.10;;;;;;5156975;27;20031;-69
2023/10/01 06:46:34;;;;;;;0.55;0.55;;;20.40;52.10;;;;;;5156169;27;20019;-68
2023/10/01 06:49:02;;;;;;;0.47;0.47;;;20.50;51.90;;;;;;5155899;27;20039;-69
2023/10/01 06:51:37;;;;;;;1.17;1.08;;;20.50;51.90;;;;;;5166227;27;20033;-69
2023/10/01 06:54:05;;;;;;;0.60;0.60;;;20.50;51.70;;;;;;5177027;27;20026;-69
2023/10/01 06:56:33;;;;;;;1.58;1.48;;;20.60;51.60;;;;;;5176903;27;20019;-69
2023/10/01 07:01:35;;;;;;;0.30;0.30;;;20.80;51.50;;;;;;5176962;27;20068;-69
2023/10/01 07:04:06;;;;;;;0.52;0.52;;;20.90;51.30;;;;;;5176379;27;20024;-69
2023/10/01 07:06:34;;;;;;;0.70;0.70;;;21.00;51.40;;;;;;5176560;27;20027;-69
2023/10/01 07:08:59;;;;;;;0.40;0.40;;;21.20;51.40;;;;;;5176266;27;20051;-66
2023/10/01 07:11:28;;;;;;;0.40;0.40;;;21.40;51.00;;;;;;5177370;27;20026;-69
2023/10/01 07:13:55;;;;;;;1.38;1.08;;;21.50;50.40;;;;;;5176685;27;20067;-69
2023/10/01 07:16:39;;;;;;;0.45;0.45;;;21.60;50.10;;;;;;5176430;27;20101;-68
2023/10/01 07:19:11;;;;;;;0.43;0.43;;;21.70;49.80;;;;;;5174721;27;20479;-69
2023/10/01 07:21:39;;;;;;;0.85;0.80;;;21.70;49.70;;;;;;5176452;27;20040;-69
2023/10/01 07:24:10;;;;;;;0.45;0.45;;;21.60;49.30;;;;;;5176051;27;20068;-68
2023/10/01 07:26:40;;;;;;;;;;;21.60;49.30;;;;;;5176890;27;20019;-69
2023/10/01 07:29:08;;;;;;;0.57;0.57;;;21.60;49.10;;;;;;5176052;27;19907;-69
2023/10/01 07:31:38;;;;;;;0.40;0.40;;;21.60;49.10;;;;;;5176409;27;20382;-68
2023/10/01 07:34:12;;;;;;;0.60;0.50;;;21.70;49.50;;;;;;5174812;27;20027;-67
2023/10/01 07:36:42;;;;;;;0.40;0.40;;;21.80;49.50;;;;;;5176154;27;20490;-67
2023/10/01 07:39:15;;;;;;;1.45;1.10;;;22.10;49.40;;;;;;5175860;27;20432;-68
2023/10/01 07:41:44;;;;;;;0.77;0.77;;;22.50;49.90;;;;;;5175903;27;20110;-67
2023/10/01 07:44:14;;;;;;;0.82;0.80;;;22.90;48.70;;;;;;5174459;27;20517;-67
2023/10/01 07:46:40;;;;;;;;;;;23.20;47.90;;;;;;5176164;27;20034;-67
2023/10/01 07:49:09;;;;;;;0.60;0.60;;;23.60;47.50;;;;;;5175376;27;20314;-68
2023/10/01 07:51:44;;;;;;;2.47;1.33;;;23.80;46.80;;;;;;5175538;27;20455;-68
2023/10/01 07:54:10;;;;;;;0.52;0.52;;;23.90;45.70;;;;;;5175424;27;20041;-67
2023/10/01 07:56:47;;;;;;;0.45;0.45;;;23.80;45.20;;;;;;5175531;27;20026;-68
2023/10/01 07:59:33;;;;;;;0.40;0.40;;;23.70;44.90;;;;;;5175453;27;20026;-67
2023/10/01 08:04:57;;;;;;;0.70;0.70;;;23.70;45.30;;;;;;5172983;27;20034;-67
2023/10/01 08:07:30;;;;;;;1.38;0.70;;;23.80;45.20;;;;;;5154765;27;20038;-67
2023/10/01 08:09:57;;;;;;;0.60;0.60;;;23.80;44.90;;;;;;5153129;27;20039;-68
2023/10/01 08:15:29;;;;;;;0.80;0.80;;;24.00;45.00;;;;;;5154759;27;20045;-68
2023/10/01 08:18:19;;;;;;;0.50;0.50;;;24.20;45.10;;;;;;5154565;27;20023;-68
2023/10/01 08:20:56;;;;;;;0.50;0.50;;;24.20;44.50;;;;;;5154009;27;20022;-68
2023/10/01 08:23:23;;;;;;;0.68;0.65;;;24.30;44.20;;;;;;5154217;27;20083;-68
2023/10/01 08:25:51;;;;;;;0.50;0.50;;;24.40;44.30;;;;;;5152957;27;20377;-68
2023/10/01 08:30:49;;;;;;;5.80;1.10;;;24.70;43.60;;;;;;5174874;27;20126;-68
2023/10/01 08:33:32;;;;;;;0.95;0.95;;;24.70;43.30;;;;;;5174800;27;20121;-69
2023/10/01 08:36:05;;;;;;;1.20;1.13;;;24.90;43.30;;;;;;5175244;27;20015;-69
2023/10/01 08:38:37;;;;;;;4.50;1.38;;;25.10;43.10;;;;;;5156004;27;20042;-69
2023/10/01 08:41:05;;;;;;;1.30;0.98;;;25.30;42.80;;;;;;5154186;27;20083;-69
2023/10/01 08:43:35;;;;;;;1.15;1.08;;;25.40;42.60;;;;;;5168183;27;20402;-69
2023/10/01 08:46:15;;;;;;;1.33;1.23;;;25.50;42.00;;;;;;5173275;27;20096;-69
2023/10/01 08:48:42;;;;;;;1.43;1.33;;;25.60;41.50;;;;;;5173578;27;20406;-68
2023/10/01 08:51:11;;;;;;;0.70;0.70;;;25.60;41.60;;;;;;5172859;27;20392;-68
2023/10/01 08:53:43;;;;;;;1.45;1.10;;;25.80;41.80;;;;;;5174475;27;20022;-68
2023/10/01 08:56:13;;;;;;;0.75;0.75;;;25.80;41.90;;;;;;5171682;27;20079;-68
2023/10/01 08:58:49;;;;;;;3.60;0.63;;;26.20;41.80;;;;;;5157675;27;20032;-69
2023/10/01 09:01:19;;;;;;;1.05;0.98;;;26.40;41.10;;;;;;5169157;27;20026;-69
2023/10/01 09:03:48;;;;;;;0.70;0.70;;;26.50;39.90;;;;;;5175498;27;20027;-69
2023/10/01 09:06:27;;;;;;;0.88;0.88;;;26.50;40.00;;;;;;5172860;27;20060;-70
2023/10/01 09:08:54;;;;;;;0.63;0.63;;;26.60;40.30;;;;;;5172923;27;20038;-68
2023/10/01 09:11:43;;;;;;;1.75;1.02;;;26.70;40.10;;;;;;5172154;27;20525;-70
2023/10/01 09:14:21;;;;;;;0.50;0.50;;;26.90;40.10;;;;;;5172508;27;20383;-68
2023/10/01 09:16:57;;;;;;;0.60;0.60;;;27.20;39.90;;;;;;5174194;27;20027;-67
2023/10/01 09:19:30;;;;;;;0.85;0.77;;;27.40;39.20;;;;;;5175002;27;20034;-70
2023/10/01 09:22:07;;;;;;;0.63;0.63;;;27.60;39.20;;;;;;5173979;27;20071;-70
2023/10/01 09:24:43;;;;;;;1.75;1.27;;;27.80;38.50;;;;;;5174967;27;20038;-70
2023/10/01 09:27:19;;;;;;;0.40;0.40;;;28.00;38.20;;;;;;5173826;27;20045;-70
2023/10/01 09:29:46;;;;;;;0.55;0.55;;;28.30;38.00;;;;;;5153481;27;20034;-69
2023/10/01 09:32:13;;;;;;;0.70;0.70;;;28.40;37.80;;;;;;5154516;27;20097;-69
2023/10/01 09:34:53;;;;;;;0.50;0.50;;;28.50;37.20;;;;;;5166510;27;20074;-69
2023/10/01 09:37:34;;;;;;;0.65;0.50;;;28.60;37.10;;;;;;5173173;27;20113;-68
2023/10/01 09:40:05;;;;;;;0.80;0.80;;;28.70;37.20;;;;;;5162755;27;20405;-68
2023/10/01 09:42:44;;;;;;;1.65;0.95;;;28.80;36.90;;;;;;5153295;27;20401;-68
2023/10/01 09:45:26;;;;;;;1.92;1.10;;;28.70;36.30;;;;;;5152819;27;20037;-68
2023/10/01 09:48:04;;;;;;;0.77;0.77;;;28.60;36.70;;;;;;5152669;27;20050;-69
2023/10/01 09:50:42;;;;;;;1.38;0.93;;;28.50;36.60;;;;;;5151184;27;20030;-68
2023/10/01 09:53:12;;;;;;;0.60;0.60;;;28.50;36.80;;;;;;5171978;27;20027;-68
2023/10/01 09:55:47;;;;;;;;;;;28.50;37.00;;;;;;5175147;27;20019;-68
2023/10/01 09:58:26;;;;;;;0.68;0.68;;;28.40;37.10;;;;;;5174332;27;19914;-69
2023/10/01 10:01:01;;;;;;;0.43;0.43;;;28.50;37.50;;;;;;5177992;27;20067;-69
2023/10/01 10:03:36;;;;;;;1.27;0.65;;;28.60;37.50;;;;;;5176719;27;20034;-69
2023/10/01 10:06:07;;;;;;;1.33;1.23;;;28.80;37.50;;;;;;5177174;27;20101;-69
2023/10/01 10:08:39;;;;;;;1.15;1.05;;;28.80;36.80;;;;;;5175774;27;20453;-69
2023/10/01 10:11:13;;;;;;;1.65;1.10;;;28.80;36.80;;;;;;5176218;27;20029;-69
2023/10/01 10:13:47;;;;;;;0.68;0.60;;;28.80;36.40;;;;;;5177598;27;20027;-69
2023/10/01 10:16:31;;;;;;;0.68;0.60;;;28.60;36.70;;;;;;5177506;27;20109;-69
2023/10/01 10:19:08;;;;;;;0.50;0.50;;;28.50;37.10;;;;;;5156648;27;20027;-70
2023/10/01 10:24:31;;;;;;;1.27;1.15;;;28.60;37.70;;;;;;5156502;27;20523;-69
2023/10/01 10:27:03;;;;;;;0.77;0.77;;;28.70;37.20;;;;;;5158863;27;20369;-68
2023/10/01 10:29:47;;;;;;;0.95;0.82;;;28.70;37.00;;;;;;5169532;27;20032;-68
2023/10/01 10:32:24;;;;;;;0.60;0.60;;;28.60;37.20;;;;;;5166739;27;20548;-68
2023/10/01 10:35:04;;;;;;;1.13;1.08;;;28.70;37.50;;;;;;5161282;27;20034;-68
2023/10/01 10:37:54;;;;;;;;;;;28.80;37.30;;;;;;5167951;27;20031;-68
2023/10/01 10:43:04;;;;;;;3.13;1.17;;;29.30;37.00;;;;;;5166397;27;20034;-68
2023/10/01 10:45:46;;;;;;;2.08;1.00;;;29.50;36.60;;;;;;5171718;27;20034;-68
2023/10/01 10:48:21;;;;;;;1.55;0.95;;;29.70;36.50;;;;;;5176340;27;20022;-68
2023/10/01 10:50:57;;;;;;;0.75;0.75;;;30.00;36.80;;;;;;5175418;27;20041;-68
2023/10/01 10:53:24;;;;;;;0.75;0.75;;;30.50;37.40;;;;;;5176814;27;20363;-68
2023/10/01 10:56:00;;;;;;;0.50;0.50;;;31.10;37.30;;;;;;5175304;27;20104;-69
2023/10/01 10:58:28;;;;;;;0.60;0.60;;;31.70;35.90;;;;;;5175846;27;20056;-71
2023/10/01 11:00:55;;;;;;;1.17;1.08;;;32.10;35.40;;;;;;5155977;27;20413;-68
2023/10/01 11:03:41;;;;;;;1.08;0.90;;;32.50;35.10;;;;;;5155767;27;20046;-68
2023/10/01 11:06:42;;;;;;;0.73;0.73;;;32.80;34.50;;;;;;5155810;27;20495;-69
2023/10/01 11:09:26;;;;;;;1.95;1.42;;;33.10;33.40;;;;;;5131554;27;20058;-68
2023/10/01 11:12:07;;;;;;;0.60;0.60;;;33.10;32.40;;;;;;5152203;27;20495;-68
2023/10/01 11:14:36;;;;;;;4.25;0.85;;;33.00;32.30;;;;;;5156079;27;20050;-68
2023/10/01 11:17:06;;;;;;;0.87;0.77;;;32.80;32.30;;;;;;5172136;27;20072;-68
2023/10/01 11:19:35;;;;;;;0.60;0.60;;;32.60;32.50;;;;;;5175980;27;20459;-68
2023/10/01 11:22:03;;;;;;;0.50;0.50;;;32.50;32.60;;;;;;5176516;27;20497;-68
2023/10/01 11:24:35;;;;;;;5.25;1.70;;;32.30;32.50;;;;;;5174518;27;20090;-69
2023/10/01 11:30:28;;;;;;;0.85;0.85;;;32.10;32.80;;;;;;5174971;27;20036;-68
2023/10/01 11:33:01;;;;;;;0.80;0.80;;;32.00;33.20;;;;;;5175612;27;20398;-69
2023/10/01 11:36:06;;;;;;;1.00;0.93;;;32.10;33.20;;;;;;5163731;27;20021;-68
2023/10/01 11:38:33;;;;;;;0.63;0.60;;;32.00;33.00;;;;;;5162413;27;20071;-69
2023/10/01 11:41:07;;;;;;;0.88;0.85;;;32.00;33.10;;;;;;5164418;27;20455;-69
2023/10/01 11:43:38;;;;;;;0.98;0.95;;;31.90;33.30;;;;;;5177138;27;20121;-70
2023/10/01 11:46:25;;;;;;;1.00;0.77;;;31.80;33.20;;;;;;5176551;27;20032;-70
2023/10/01 11:49:02;;;;;;;0.75;0.75;;;31.70;33.10;;;;;;5173532;27;20023;-69
2023/10/01 11:51:31;;;;;;;0.90;0.85;;;31.50;33.50;;;;;;5162840;27;20027;-70
2023/10/01 11:53:58;;;;;;;1.52;0.77;;;31.50;34.00;;;;;;5157014;27;20030;-69
2023/10/01 11:56:24;;;;;;;1.08;1.05;;;31.70;33.90;;;;;;5178230;27;20034;-71
2023/10/01 11:58:49;;;;;;;2.50;1.30;;;31.80;33.70;;;;;;5177070;27;20471;-71
2023/10/01 12:01:15;;;;;;;2.20;1.48;;;31.80;33.50;;;;;;5177066;27;20413;-70
2023/10/01 12:03:40;;;;;;;1.25;0.80;;;31.80;33.50;;;;;;5176765;27;20030;-69
2023/10/01 12:06:06;;;;;;;0.50;0.50;;;31.70;33.20;;;;;;5173299;27;20502;-69
2023/10/01 12:08:47;;;;;;;1.02;0.95;;;31.60;33.60;;;;;;5174102;27;20057;-69
2023/10/01 12:11:27;;;;;;;3.00;1.15;;;31.70;34.10;;;;;;5174197;27;20022;-70
2023/10/01 12:14:06;;;;;;;2.13;1.58;;;31.90;33.70;;;;;;5174657;27;20073;-68
2023/10/01 12:16:33;;;;;;;5.88;1.23;;;32.00;33.90;;;;;;5175505;27;20468;-69
2023/10/01 12:19:22;;;;;;;0.93;0.93;;;32.20;34.00;;;;;;5173050;27;20026;-68
2023/10/01 12:21:48;;;;;;;0.70;0.70;;;32.30;33.60;;;;;;5175532;27;20030;-68
2023/10/01 12:24:15;;;;;;;0.60;0.60;;;32.30;33.80;;;;;;5174636;27;20026;-69
2023/10/01 12:26:43;;;;;;;1.90;1.15;;;32.30;33.60;;;;;;5175948;27;20048;-68
2023/10/01 12:29:13;;;;;;;0.65;0.65;;;32.20;33.50;;;;;;5174398;27;20355;-69
2023/10/01 12:31:44;;;;;;;1.23;1.08;;;32.20;33.40;;;;;;5174775;27;20455;-69
2023/10/01 12:34:13;;;;;;;1.42;1.33;;;32.00;33.20;;;;;;5176142;27;20026;-70
2023/10/01 12:36:45;;;;;;;0.65;0.65;;;31.80;32.90;;;;;;5175156;27;20059;-69
2023/10/01 12:44:34;;;;;;;0.60;0.60;;;31.20;34.30;;;;;;5164473;27;20129;-68
2023/10/01 12:47:15;;;;;;;1.40;0.88;;;31.10;34.60;;;;;;5174875;27;20461;-67
2023/10/01 12:49:42;;;;;;;0.88;0.77;;;31.10;34.30;;;;;;5175282;27;20058;-69
2023/10/01 12:52:09;;;;;;;1.48;0.93;;;30.90;34.30;;;;;;5175844;27;20019;-69
2023/10/01 12:54:38;;;;;;;1.13;0.65;;;30.70;34.70;;;;;;5175920;27;20058;-70
2023/10/01 12:57:33;;;;;;;0.77;0.77;;;30.60;35.20;;;;;;5174227;27;20027;-70
2023/10/01 13:02:45;;;;;;;0.80;0.80;;;30.70;35.40;;;;;;5165513;27;20037;-68
2023/10/01 13:05:19;;;;;;;0.65;0.65;;;30.60;35.10;;;;;;5163980;27;20030;-70
2023/10/01 13:07:47;;;;;;;0.77;0.77;;;30.40;34.90;;;;;;5164464;27;20030;-69
2023/10/01 13:10:14;;;;;;;2.08;1.48;;;30.30;34.80;;;;;;5162699;27;20418;-68
2023/10/01 13:12:53;;;;;;;1.20;1.05;;;30.10;35.10;;;;;;5167322;27;20046;-68
2023/10/01 13:15:29;;;;;;;1.48;1.38;;;30.00;35.30;;;;;;5165949;27;20050;-69
2023/10/01 13:18:04;;;;;;;2.20;0.93;;;29.90;35.50;;;;;;5170462;27;20030;-68
2023/10/01 13:20:46;;;;;;;0.70;0.70;;;29.80;35.50;;;;;;5158808;27;20022;-68
2023/10/01 13:23:12;;;;;;;3.30;1.23;;;29.70;35.50;;;;;;5173619;27;20128;-68
2023/10/01 13:25:46;;;;;;;0.75;0.75;;;29.60;35.90;;;;;;5174695;27;20034;-69
2023/10/01 13:28:19;;;;;;;2.00;1.23;;;29.50;35.90;;;;;;5156471;27;20095;-69
2023/10/01 13:33:43;;;;;;;6.97;1.42;;;29.30;36.30;;;;;;5167472;27;20030;-69
2023/10/01 13:36:13;;;;;;;1.92;1.13;;;29.30;36.50;;;;;;5158630;27;20109;-69
2023/10/01 13:38:56;;;;;;;1.50;1.40;;;29.20;36.60;;;;;;5167621;27;20014;-69
2023/10/01 14:08:43;;;;;;;0.77;0.75;;;29.10;36.60;;;;;;5169805;27;20083;-68
2023/10/01 14:11:10;;;;;;;5.40;1.40;;;29.10;36.60;;;;;;5169663;27;20030;-67
2023/10/01 14:13:36;;;;;;;0.85;0.82;;;29.00;36.70;;;;;;5172902;27;20022;-67
2023/10/01 14:16:11;;;;;;;0.90;0.80;;;29.00;36.80;;;;;;5167998;27;20046;-67
2023/10/01 14:18:40;;;;;;;0.80;0.80;;;29.00;36.80;;;;;;5162572;27;20019;-68
2023/10/01 14:21:15;;;;;;;1.20;1.10;;;29.00;36.80;;;;;;5170489;27;20047;-68
2023/10/01 14:23:42;;;;;;;1.48;1.02;;;28.90;36.90;;;;;;5171432;27;20106;-70
2023/10/01 14:26:13;;;;;;;1.00;0.95;;;29.00;37.10;;;;;;5158356;27;20018;-68
2023/10/01 14:28:45;;;;;;;2.58;1.35;;;29.00;37.20;;;;;;5162309;27;20447;-68